createdAt,value
2023-01-13T00:00:15.020Z,95469.03
2023-01-13T00:02:41.751Z,95472.47
2023-01-13T00:05:08.884Z,95460.53
2023-01-13T00:07:35.730Z,95465.06
2023-01-13T00:10:02.404Z,95457.25
2023-01-13T00:12:29.108Z,95461.75
2023-01-13T00:14:55.857Z,95464.06
2023-01-13T00:17:23.134Z,95452.69
2023-01-13T00:19:49.737Z,95457.25
2023-01-13T00:22:17.602Z,95453.91
2023-01-13T00:24:44.456Z,95450.88
2023-01-13T00:27:11.102Z,95441.31
2023-01-13T00:29:37.731Z,95435.66
2023-01-13T00:32:04.569Z,95434.06
2023-01-13T00:34:31.580Z,95431.22
2023-01-13T00:36:58.355Z,95428.34
2023-01-13T00:39:24.997Z,95418.84
2023-01-13T00:41:52.711Z,95411.75
2023-01-13T00:44:19.438Z,95407.72
2023-01-13T00:46:46.260Z,95408.00
2023-01-13T00:49:13.082Z,95398.59
2023-01-13T00:51:39.764Z,95403.47
2023-01-13T00:54:08.287Z,95398.16
2023-01-13T00:56:40.111Z,95398.19
2023-01-13T00:59:10.551Z,95396.53
2023-01-13T01:01:37.325Z,95389.88
2023-01-13T01:04:04.338Z,95403.97
2023-01-13T01:06:31.326Z,95395.66
2023-01-13T01:08:58.114Z,95395.13
2023-01-13T01:11:30.895Z,95391.59
2023-01-13T01:14:02.275Z,95395.09
2023-01-13T01:16:30.966Z,95402.34
2023-01-13T01:18:58.259Z,95396.97
2023-01-13T01:21:29.245Z,95397.78
2023-01-13T01:23:55.946Z,95398.31
2023-01-13T01:26:25.508Z,95396.78
2023-01-13T01:28:53.286Z,95405.28
2023-01-13T01:31:28.740Z,95400.53
2023-01-13T01:33:55.767Z,95396.34
2023-01-13T01:36:24.287Z,95399.78
2023-01-13T01:38:50.931Z,95409.75
2023-01-13T01:41:21.374Z,95402.84
2023-01-13T01:43:55.540Z,95395.47
2023-01-13T01:46:23.243Z,95404.22
2023-01-13T01:48:50.035Z,95409.75
2023-01-13T01:51:17.143Z,95407.31
2023-01-13T01:53:44.327Z,95412.97
2023-01-13T01:56:11.483Z,95412.13
2023-01-13T01:58:46.761Z,95403.03
2023-01-13T02:01:14.466Z,95393.69
2023-01-13T02:03:50.355Z,95398.69
2023-01-13T02:06:17.512Z,95398.50
2023-01-13T02:08:44.311Z,95399.91
2023-01-13T02:11:27.658Z,95380.78
2023-01-13T02:13:54.582Z,95375.34
2023-01-13T02:16:24.336Z,95366.63
2023-01-13T02:19:11.086Z,95367.03
2023-01-13T02:22:22.157Z,95362.56
2023-01-13T02:25:22.339Z,95368.31
2023-01-13T02:28:18.486Z,95359.59
2023-01-13T02:30:56.652Z,95347.84
2023-01-13T02:33:43.405Z,95343.78
2023-01-13T02:36:34.000Z,95339.72
2023-01-13T02:39:11.554Z,95342.75
2023-01-13T02:42:02.354Z,95336.09
2023-01-13T02:44:42.524Z,95333.69
2023-01-13T02:47:20.559Z,95330.63
2023-01-13T02:49:52.776Z,95337.88
2023-01-13T02:52:40.216Z,95335.53
2023-01-13T02:55:17.389Z,95334.31
2023-01-13T02:57:46.572Z,95323.41
2023-01-13T03:00:16.801Z,95327.06
2023-01-13T03:02:43.456Z,95335.16
2023-01-13T03:05:15.635Z,95334.09
2023-01-13T03:07:47.658Z,95330.25
2023-01-13T03:10:27.729Z,95330.03
2023-01-13T03:13:07.549Z,95332.31
2023-01-13T03:15:46.300Z,95328.88
2023-01-13T03:18:31.526Z,95328.47
2023-01-13T03:21:35.239Z,95333.13
2023-01-13T03:24:20.203Z,95334.00
2023-01-13T03:27:11.273Z,95341.84
2023-01-13T03:29:52.483Z,95336.75
2023-01-13T03:32:38.534Z,95328.47
2023-01-13T03:35:23.637Z,95339.09
2023-01-13T03:38:18.255Z,95331.66
2023-01-13T03:40:58.061Z,95330.97
2023-01-13T03:43:34.395Z,95339.53
2023-01-13T03:46:14.186Z,95337.97
2023-01-13T03:48:46.181Z,95343.72
2023-01-13T03:51:20.614Z,95335.56
2023-01-13T03:54:00.685Z,95344.78
2023-01-13T03:56:41.162Z,95351.03
2023-01-13T03:59:14.798Z,95359.16
2023-01-13T04:01:48.350Z,95350.38
2023-01-13T04:04:26.908Z,95355.03
2023-01-13T04:07:01.187Z,95364.78
2023-01-13T04:10:00.280Z,95359.34
2023-01-13T04:12:44.351Z,95367.50
2023-01-13T04:15:12.787Z,95371.91
2023-01-13T04:17:39.408Z,95365.63
2023-01-13T04:20:06.544Z,95376.72
2023-01-13T04:22:33.208Z,95366.47
2023-01-13T04:24:59.857Z,95372.34
2023-01-13T04:27:26.429Z,95378.09
2023-01-13T04:29:53.073Z,95373.06
2023-01-13T04:32:19.686Z,95398.00
2023-01-13T04:34:46.296Z,95396.72
2023-01-13T04:37:12.978Z,95383.75
2023-01-13T04:39:39.600Z,95383.28
2023-01-13T04:42:06.231Z,95383.31
2023-01-13T04:44:32.844Z,95383.75
2023-01-13T04:46:59.527Z,95384.97
2023-01-13T04:49:26.216Z,95384.66
2023-01-13T04:51:53.194Z,95393.16
2023-01-13T04:54:20.203Z,95387.19
2023-01-13T04:56:46.896Z,95393.16
2023-01-13T04:59:14.659Z,95383.56
2023-01-13T05:01:41.553Z,95392.88
2023-01-13T05:04:08.968Z,95398.00
2023-01-13T05:06:35.630Z,95397.13
2023-01-13T05:09:02.354Z,95405.22
2023-01-13T05:11:28.925Z,95406.25
2023-01-13T05:13:55.535Z,95407.16
2023-01-13T05:16:22.257Z,95403.28
2023-01-13T05:18:49.027Z,95401.69
2023-01-13T05:21:15.620Z,95399.06
2023-01-13T05:23:42.231Z,95400.63
2023-01-13T05:26:08.972Z,95408.63
2023-01-13T05:28:35.678Z,95401.19
2023-01-13T05:31:02.381Z,95396.63
2023-01-13T05:33:29.059Z,95404.75
2023-01-13T05:35:55.883Z,95398.84
2023-01-13T05:38:22.701Z,95390.59
2023-01-13T05:40:49.401Z,95388.00
2023-01-13T05:43:18.448Z,95393.69
2023-01-13T05:45:45.526Z,95390.19
2023-01-13T05:48:12.652Z,95387.88
2023-01-13T05:50:39.364Z,95390.00
2023-01-13T05:53:06.460Z,95397.78
2023-01-13T05:55:33.128Z,95395.09
2023-01-13T05:57:59.876Z,95394.50
2023-01-13T06:00:26.531Z,95398.66
2023-01-13T06:02:53.152Z,95394.28
2023-01-13T06:05:19.853Z,95400.72
2023-01-13T06:07:46.672Z,95398.53
2023-01-13T06:10:13.516Z,95393.91
2023-01-13T06:12:40.208Z,95388.31
2023-01-13T06:15:07.333Z,95389.03
2023-01-13T06:17:33.972Z,95390.69
2023-01-13T06:20:00.661Z,95385.63
2023-01-13T06:22:30.968Z,95374.41
2023-01-13T06:24:58.585Z,95385.25
2023-01-13T06:27:25.898Z,95378.34
2023-01-13T06:29:52.525Z,95389.41
2023-01-13T06:32:24.633Z,95395.78
2023-01-13T06:35:01.053Z,95385.97
2023-01-13T06:37:30.582Z,95387.78
2023-01-13T06:40:01.892Z,95392.28
2023-01-13T06:42:33.001Z,95385.25
2023-01-13T06:44:59.952Z,95395.00
2023-01-13T06:47:26.540Z,95397.28
2023-01-13T06:49:53.154Z,95407.47
2023-01-13T06:52:19.805Z,95408.44
2023-01-13T06:54:46.486Z,95409.59
2023-01-13T06:57:13.375Z,95416.50
2023-01-13T06:59:39.991Z,95409.31
2023-01-13T07:02:06.775Z,95424.38
2023-01-13T07:04:33.477Z,95425.94
2023-01-13T07:07:00.124Z,95419.81
2023-01-13T07:09:26.751Z,95429.84
2023-01-13T07:11:53.387Z,95429.50
2023-01-13T07:14:20.065Z,95436.47
2023-01-13T07:16:46.723Z,95431.94
2023-01-13T07:19:13.374Z,95444.25
2023-01-13T07:21:39.988Z,95444.25
2023-01-13T07:24:06.841Z,95449.00
2023-01-13T07:26:33.451Z,95457.84
2023-01-13T07:29:00.135Z,95456.13
2023-01-13T07:31:26.786Z,95449.25
2023-01-13T07:33:53.409Z,95452.59
2023-01-13T07:36:20.075Z,95457.47
2023-01-13T07:38:46.713Z,95461.09
2023-01-13T07:41:14.822Z,95449.78
2023-01-13T07:43:41.421Z,95450.94
2023-01-13T07:46:08.116Z,95452.13
2023-01-13T07:48:35.072Z,95460.47
2023-01-13T07:51:12.273Z,95461.28
2023-01-13T07:53:38.953Z,95465.84
2023-01-13T07:56:07.230Z,95472.72
2023-01-13T07:58:35.930Z,95468.34
2023-01-13T08:01:11.265Z,95462.72
2023-01-13T08:03:38.590Z,95476.16
2023-01-13T08:06:05.522Z,95473.56
2023-01-13T08:08:32.301Z,95463.59
2023-01-13T08:11:00.892Z,95462.50
2023-01-13T08:13:27.578Z,95464.13
2023-01-13T08:16:03.372Z,95469.22
2023-01-13T08:18:32.499Z,95478.91
2023-01-13T08:21:03.267Z,95471.72
2023-01-13T08:23:30.229Z,95470.09
2023-01-13T08:26:06.068Z,95478.84
2023-01-13T08:28:32.828Z,95473.75
2023-01-13T08:31:02.122Z,95466.38
2023-01-13T08:33:29.733Z,95481.31
2023-01-13T08:35:56.778Z,95481.84
2023-01-13T08:38:24.029Z,95481.25
2023-01-13T08:40:50.922Z,95494.75
2023-01-13T08:43:17.507Z,95499.28
2023-01-13T08:45:44.170Z,95509.28
2023-01-13T08:48:10.769Z,95501.84
2023-01-13T08:50:37.479Z,95514.06
2023-01-13T08:53:04.148Z,95514.50
2023-01-13T08:55:30.765Z,95520.47
2023-01-13T08:58:14.193Z,95529.72
2023-01-13T09:00:42.532Z,95532.13
2023-01-13T09:03:09.275Z,95537.69
2023-01-13T09:05:36.188Z,95537.13
2023-01-13T09:08:03.049Z,95537.56
2023-01-13T09:10:29.746Z,95547.19
2023-01-13T09:12:56.359Z,95545.44
2023-01-13T09:15:23.044Z,95560.50
2023-01-13T09:17:49.659Z,95556.63
2023-01-13T09:20:16.407Z,95558.84
2023-01-13T09:22:43.072Z,95565.19
2023-01-13T09:25:09.980Z,95554.50
2023-01-13T09:27:36.619Z,95554.56
2023-01-13T09:30:04.150Z,95560.75
2023-01-13T09:32:31.144Z,95559.88
2023-01-13T09:34:57.737Z,95559.50
2023-01-13T09:37:25.168Z,95542.53
2023-01-13T09:39:51.749Z,95547.16
2023-01-13T09:42:24.893Z,95555.78
2023-01-13T09:45:04.820Z,95551.53
2023-01-13T09:47:42.976Z,95556.63
2023-01-13T09:50:28.956Z,95563.53
2023-01-13T09:52:57.227Z,95566.28
2023-01-13T09:55:35.000Z,95572.56
2023-01-13T09:58:10.288Z,95570.72
2023-01-13T10:00:45.574Z,95575.94
2023-01-13T10:03:20.217Z,95551.94
2023-01-13T10:06:05.383Z,95554.66
2023-01-13T10:08:38.093Z,95559.97
2023-01-13T10:11:13.219Z,95558.09
2023-01-13T10:13:41.374Z,95563.19
2023-01-13T10:16:22.463Z,95556.59
2023-01-13T10:19:02.432Z,95560.59
2023-01-13T10:21:29.061Z,95562.84
2023-01-13T10:24:05.305Z,95555.59
2023-01-13T10:26:45.118Z,95557.75
2023-01-13T10:29:29.085Z,95551.63
2023-01-13T10:31:58.003Z,95548.22
2023-01-13T10:34:26.779Z,95541.22
2023-01-13T10:37:02.204Z,95545.13
2023-01-13T10:39:40.220Z,95537.34
2023-01-13T10:42:13.938Z,95536.53
2023-01-13T10:44:57.086Z,95537.31
2023-01-13T10:47:36.009Z,95544.44
2023-01-13T10:50:09.757Z,95544.28
2023-01-13T10:52:54.638Z,95548.53
2023-01-13T10:55:29.632Z,95534.09
2023-01-13T10:57:56.821Z,95513.06
2023-01-13T11:00:33.310Z,95509.78
2023-01-13T11:03:24.780Z,95507.97
2023-01-13T11:06:00.450Z,95507.97
2023-01-13T11:08:42.831Z,95498.03
2023-01-13T11:11:35.308Z,95493.38
2023-01-13T11:14:09.204Z,95508.88
2023-01-13T11:16:52.785Z,95507.84
2023-01-13T11:19:27.529Z,95501.69
2023-01-13T11:21:59.116Z,95501.34
2023-01-13T11:24:31.610Z,95498.50
2023-01-13T11:27:24.181Z,95500.72
2023-01-13T11:30:09.210Z,95505.34
2023-01-13T11:32:56.321Z,95510.25
2023-01-13T11:35:24.329Z,95501.13
2023-01-13T11:38:02.692Z,95503.34
2023-01-13T11:40:49.085Z,95505.81
2023-01-13T11:43:36.590Z,95498.03
2023-01-13T11:46:03.555Z,95500.53
2023-01-13T11:48:35.657Z,95504.97
2023-01-13T11:51:20.995Z,95516.13
2023-01-13T11:54:10.744Z,95516.75
2023-01-13T11:57:07.980Z,95510.66
2023-01-13T12:00:03.973Z,95509.84
2023-01-13T12:02:44.923Z,95503.56
2023-01-13T12:05:39.378Z,95509.78
2023-01-13T12:08:50.901Z,95528.66
2023-01-13T12:11:20.300Z,95530.91
2023-01-13T12:13:58.242Z,95530.47
2023-01-13T12:16:32.779Z,95523.03
2023-01-13T12:19:29.732Z,95530.31
2023-01-13T12:22:11.616Z,95529.53
2023-01-13T12:24:41.242Z,95527.31
2023-01-13T12:27:38.883Z,95520.81
2023-01-13T12:30:39.187Z,95522.22
2023-01-13T12:33:44.704Z,95526.06
2023-01-13T12:36:46.196Z,95527.91
2023-01-13T12:39:18.606Z,95532.34
2023-01-13T12:41:52.043Z,95541.03
2023-01-13T12:44:18.771Z,95540.03
2023-01-13T12:46:51.954Z,95535.63
2023-01-13T12:49:21.899Z,95539.06
2023-01-13T12:51:51.166Z,95535.38
2023-01-13T12:54:39.420Z,95534.59
2023-01-13T12:57:25.120Z,95533.88
2023-01-13T13:00:00.789Z,95524.91
2023-01-13T13:02:31.761Z,95521.25
2023-01-13T13:05:23.875Z,95527.56
2023-01-13T13:08:06.863Z,95527.16
2023-01-13T13:10:55.269Z,95515.31
2023-01-13T13:13:43.415Z,95520.44
2023-01-13T13:16:31.184Z,95532.91
2023-01-13T13:19:19.552Z,95533.69
2023-01-13T13:22:13.875Z,95530.41
2023-01-13T13:24:42.798Z,95537.75
2023-01-13T13:27:30.001Z,95545.13
2023-01-13T13:30:04.083Z,95539.38
2023-01-13T13:32:45.551Z,95538.50
2023-01-13T13:35:29.076Z,95531.22
2023-01-13T13:38:08.904Z,95535.47
2023-01-13T13:40:42.420Z,95532.19
2023-01-13T13:43:13.921Z,95538.91
2023-01-13T13:45:51.961Z,95540.56
2023-01-13T13:48:29.865Z,95543.69
2023-01-13T13:51:02.503Z,95550.75
2023-01-13T13:53:41.854Z,95554.81
2023-01-13T13:56:23.025Z,95551.59
2023-01-13T13:58:50.800Z,95556.91
2023-01-13T14:01:32.614Z,95555.88
2023-01-13T14:04:19.861Z,95561.78
2023-01-13T14:07:18.398Z,95570.28
2023-01-13T14:09:48.017Z,95573.53
2023-01-13T14:12:23.480Z,95570.28
2023-01-13T14:14:51.520Z,95570.28
2023-01-13T14:17:24.355Z,95576.16
2023-01-13T14:19:55.546Z,95571.53
2023-01-13T14:22:22.499Z,95556.88
2023-01-13T14:24:49.925Z,95554.22
2023-01-13T14:27:18.895Z,95556.28
2023-01-13T14:29:45.931Z,95557.69
2023-01-13T14:32:18.617Z,95544.31
2023-01-13T14:34:45.771Z,95551.78
2023-01-13T14:37:30.788Z,95544.66
2023-01-13T14:39:57.390Z,95550.81
2023-01-13T14:42:24.216Z,95551.53
2023-01-13T14:44:51.243Z,95565.19
2023-01-13T14:47:26.399Z,95563.69
2023-01-13T14:49:56.150Z,95572.75
2023-01-13T14:52:24.770Z,95579.78
2023-01-13T14:55:22.338Z,95584.88
2023-01-13T14:57:49.383Z,95585.63
2023-01-13T15:00:15.987Z,95591.97
2023-01-13T15:02:44.290Z,95593.38
2023-01-13T15:05:17.104Z,95586.63
2023-01-13T15:07:52.430Z,95599.69
2023-01-13T15:10:23.964Z,95600.53
2023-01-13T15:12:54.231Z,95605.94
2023-01-13T15:15:29.618Z,95619.75
2023-01-13T15:17:57.032Z,95610.38
2023-01-13T15:20:25.434Z,95612.91
2023-01-13T15:22:52.549Z,95618.16
2023-01-13T15:25:19.223Z,95626.06
2023-01-13T15:27:48.035Z,95630.72
2023-01-13T15:30:15.694Z,95629.91
2023-01-13T15:32:42.698Z,95631.69
2023-01-13T15:35:19.796Z,95647.47
2023-01-13T15:37:48.487Z,95646.44
2023-01-13T15:40:32.781Z,95650.41
2023-01-13T15:42:59.422Z,95645.94
2023-01-13T15:45:26.982Z,95668.78
2023-01-13T15:47:53.574Z,95680.50
2023-01-13T15:50:20.163Z,95672.19
2023-01-13T15:52:46.756Z,95674.66
2023-01-13T15:55:13.355Z,95669.16
2023-01-13T15:57:50.056Z,95683.00
2023-01-13T16:00:20.052Z,95683.69
2023-01-13T16:02:46.700Z,95683.66
2023-01-13T16:05:13.572Z,95677.44
2023-01-13T16:07:40.354Z,95682.94
2023-01-13T16:10:18.433Z,95681.91
2023-01-13T16:12:45.207Z,95670.25
2023-01-13T16:15:17.298Z,95686.50
2023-01-13T16:17:46.274Z,95678.97
2023-01-13T16:20:18.255Z,95677.44
2023-01-13T16:22:45.212Z,95681.50
2023-01-13T16:25:21.202Z,95691.09
2023-01-13T16:27:48.974Z,95694.38
2023-01-13T16:30:21.257Z,95698.19
2023-01-13T16:32:47.882Z,95689.63
2023-01-13T16:35:16.596Z,95693.91
2023-01-13T16:37:43.221Z,95705.66
2023-01-13T16:40:23.695Z,95701.09
2023-01-13T16:42:51.937Z,95712.78
2023-01-13T16:45:19.740Z,95714.69
2023-01-13T16:47:46.766Z,95705.91
2023-01-13T16:50:33.194Z,95728.50
2023-01-13T16:53:00.072Z,95739.81
2023-01-13T16:55:26.715Z,95743.34
2023-01-13T16:57:53.830Z,95745.44
2023-01-13T17:00:21.086Z,95761.72
2023-01-13T17:02:48.696Z,95767.69
2023-01-13T17:05:15.754Z,95766.03
2023-01-13T17:07:44.756Z,95773.88
2023-01-13T17:10:20.940Z,95772.63
2023-01-13T17:12:47.669Z,95780.84
2023-01-13T17:15:17.077Z,95784.13
2023-01-13T17:17:46.084Z,95777.97
2023-01-13T17:20:15.142Z,95780.41
2023-01-13T17:22:47.540Z,95777.31
2023-01-13T17:25:16.395Z,95781.38
2023-01-13T17:27:42.993Z,95778.25
2023-01-13T17:30:11.752Z,95791.53
2023-01-13T17:32:38.350Z,95789.66
2023-01-13T17:35:05.371Z,95790.34
2023-01-13T17:37:32.046Z,95792.94
2023-01-13T17:39:58.762Z,95796.69
2023-01-13T17:42:25.919Z,95796.91
2023-01-13T17:44:52.581Z,95800.53
2023-01-13T17:47:19.217Z,95786.03
2023-01-13T17:49:46.326Z,95791.09
2023-01-13T17:52:13.015Z,95800.19
2023-01-13T17:54:39.692Z,95793.56
2023-01-13T17:57:09.363Z,95792.00
2023-01-13T17:59:36.046Z,95797.00
2023-01-13T18:02:02.826Z,95803.84
2023-01-13T18:04:29.471Z,95804.75
2023-01-13T18:06:56.084Z,95803.97
2023-01-13T18:09:22.889Z,95803.28
2023-01-13T18:11:49.944Z,95813.00
2023-01-13T18:14:17.095Z,95823.56
2023-01-13T18:16:43.790Z,95819.25
2023-01-13T18:19:10.874Z,95824.00
2023-01-13T18:21:37.534Z,95827.59
2023-01-13T18:24:04.974Z,95838.03
2023-01-13T18:26:31.644Z,95834.38
2023-01-13T18:28:58.243Z,95836.63
2023-01-13T18:31:24.856Z,95835.72
2023-01-13T18:33:51.796Z,95831.69
2023-01-13T18:36:19.252Z,95842.91
2023-01-13T18:38:45.937Z,95839.34
2023-01-13T18:41:12.528Z,95836.22
2023-01-13T18:43:39.216Z,95839.91
2023-01-13T18:46:05.881Z,95852.22
2023-01-13T18:48:32.549Z,95847.75
2023-01-13T18:50:59.306Z,95841.53
2023-01-13T18:53:26.012Z,95847.47
2023-01-13T18:55:52.623Z,95860.66
2023-01-13T18:58:19.301Z,95864.13
2023-01-13T19:00:45.939Z,95870.19
2023-01-13T19:03:12.604Z,95875.31
2023-01-13T19:05:39.210Z,95880.50
2023-01-13T19:08:06.454Z,95889.81
2023-01-13T19:10:33.411Z,95890.50
2023-01-13T19:13:00.365Z,95893.97
2023-01-13T19:15:27.090Z,95894.50
2023-01-13T19:17:53.719Z,95900.50
2023-01-13T19:20:20.435Z,95901.34
2023-01-13T19:22:47.050Z,95902.78
2023-01-13T19:25:13.629Z,95898.63
2023-01-13T19:27:40.209Z,95896.91
2023-01-13T19:30:07.569Z,95894.66
2023-01-13T19:32:34.213Z,95894.28
2023-01-13T19:35:00.987Z,95895.13
2023-01-13T19:37:28.492Z,95905.00
2023-01-13T19:39:55.099Z,95916.44
2023-01-13T19:42:21.718Z,95922.81
2023-01-13T19:44:48.445Z,95928.75
2023-01-13T19:47:15.112Z,95940.47
2023-01-13T19:49:41.771Z,95939.34
2023-01-13T19:52:08.681Z,95933.56
2023-01-13T19:54:35.562Z,95934.69
2023-01-13T19:57:02.474Z,95930.81
2023-01-13T19:59:29.116Z,95931.41
2023-01-13T20:02:00.572Z,95935.25
2023-01-13T20:04:30.699Z,95941.56
2023-01-13T20:06:57.402Z,95942.97
2023-01-13T20:09:24.009Z,95942.03
2023-01-13T20:11:50.959Z,95945.72
2023-01-13T20:14:17.746Z,95945.31
2023-01-13T20:16:45.384Z,95932.31
2023-01-13T20:19:12.095Z,95922.31
2023-01-13T20:21:38.882Z,95919.38
2023-01-13T20:24:06.225Z,95928.34
2023-01-13T20:26:32.865Z,95932.56
2023-01-13T20:28:59.540Z,95925.72
2023-01-13T20:31:26.199Z,95919.81
2023-01-13T20:33:52.827Z,95925.03
2023-01-13T20:36:30.723Z,95941.56
2023-01-13T20:38:59.587Z,95943.75
2023-01-13T20:41:27.211Z,95949.34
2023-01-13T20:43:53.823Z,95946.13
2023-01-13T20:46:21.681Z,95953.91
2023-01-13T20:48:48.754Z,95955.84
2023-01-13T20:51:15.480Z,95951.44
2023-01-13T20:53:42.203Z,95947.34
2023-01-13T20:56:10.012Z,95944.91
2023-01-13T20:58:38.439Z,95955.53
2023-01-13T21:01:05.301Z,95955.88
2023-01-13T21:03:31.995Z,95967.28
2023-01-13T21:05:58.668Z,95961.06
2023-01-13T21:08:25.375Z,95968.56
2023-01-13T21:10:52.023Z,95963.13
2023-01-13T21:13:18.623Z,95965.78
2023-01-13T21:15:48.417Z,95971.56
2023-01-13T21:18:15.305Z,95966.97
2023-01-13T21:20:41.954Z,95962.56
2023-01-13T21:23:09.091Z,95956.91
2023-01-13T21:25:35.679Z,95957.13
2023-01-13T21:28:02.602Z,95951.59
2023-01-13T21:30:29.227Z,95953.31
2023-01-13T21:32:55.802Z,95950.38
2023-01-13T21:35:22.420Z,95947.88
2023-01-13T21:37:49.010Z,95945.69
2023-01-13T21:40:15.650Z,95944.50
2023-01-13T21:42:42.268Z,95940.50
2023-01-13T21:45:10.501Z,95945.69
2023-01-13T21:47:37.125Z,95946.19
2023-01-13T21:50:07.195Z,95938.97
2023-01-13T21:52:33.849Z,95942.56
2023-01-13T21:55:00.440Z,95945.13
2023-01-13T21:57:28.216Z,95945.28
2023-01-13T21:59:54.952Z,95955.88
2023-01-13T22:02:23.880Z,95955.72
2023-01-13T22:04:51.485Z,95957.78
2023-01-13T22:07:19.128Z,95964.09
2023-01-13T22:09:45.825Z,95971.09
2023-01-13T22:12:12.548Z,95969.31
2023-01-13T22:14:39.165Z,95971.59
2023-01-13T22:17:05.767Z,95973.91
2023-01-13T22:19:32.431Z,95970.66
2023-01-13T22:21:59.764Z,95975.78
2023-01-13T22:24:26.486Z,95971.25
2023-01-13T22:26:53.311Z,95973.75
2023-01-13T22:29:20.180Z,95970.53
2023-01-13T22:31:46.907Z,95964.34
2023-01-13T22:34:13.532Z,95967.16
2023-01-13T22:36:40.148Z,95970.69
2023-01-13T22:39:06.822Z,95974.59
2023-01-13T22:41:33.483Z,95968.19
2023-01-13T22:44:00.190Z,95967.84
2023-01-13T22:46:26.827Z,95959.91
2023-01-13T22:48:54.090Z,95966.88
2023-01-13T22:51:21.122Z,95956.47
2023-01-13T22:53:47.759Z,95962.97
2023-01-13T22:56:18.333Z,95964.78
2023-01-13T22:58:45.035Z,95961.47
2023-01-13T23:01:14.942Z,95964.09
2023-01-13T23:03:42.049Z,95968.44
2023-01-13T23:06:08.826Z,95964.13
2023-01-13T23:08:36.154Z,95963.78
2023-01-13T23:11:05.367Z,95965.97
2023-01-13T23:13:32.694Z,95956.75
2023-01-13T23:16:08.542Z,95959.00
2023-01-13T23:18:35.200Z,95954.91
2023-01-13T23:21:07.223Z,95953.69
2023-01-13T23:23:34.331Z,95956.19
2023-01-13T23:26:01.009Z,95950.31
2023-01-13T23:28:28.022Z,95938.63
2023-01-13T23:30:54.766Z,95941.41
2023-01-13T23:33:21.985Z,95938.19
2023-01-13T23:36:02.828Z,95929.19
2023-01-13T23:38:30.315Z,95935.53
2023-01-13T23:40:57.268Z,95936.22
2023-01-13T23:43:24.969Z,95939.41
2023-01-13T23:45:53.029Z,95932.91
2023-01-13T23:48:19.829Z,95927.09
2023-01-13T23:51:00.247Z,95922.28
2023-01-13T23:53:35.291Z,95926.28
2023-01-13T23:56:04.863Z,95926.84
2023-01-13T23:58:33.096Z,95924.00
